createdAt,value
2023-01-20T00:01:09.936Z,96410.56
2023-01-20T00:03:57.580Z,96413.84
2023-01-20T00:06:44.442Z,96414.97
2023-01-20T00:09:31.296Z,96419.78
2023-01-20T00:12:18.181Z,96424.03
2023-01-20T00:15:08.933Z,96429.28
2023-01-20T00:17:55.793Z,96432.88
2023-01-20T00:20:45.620Z,96429.13
2023-01-20T00:23:32.987Z,96426.94
2023-01-20T00:26:21.561Z,96434.53
2023-01-20T00:29:11.544Z,96434.69
2023-01-20T00:31:58.378Z,96427.75
2023-01-20T00:34:46.128Z,96431.53
2023-01-20T00:37:38.858Z,96438.25
2023-01-20T00:40:31.568Z,96435.78
2023-01-20T00:43:18.378Z,96439.22
2023-01-20T00:46:05.682Z,96448.72
2023-01-20T00:48:52.480Z,96446.25
2023-01-20T00:51:42.097Z,96449.00
2023-01-20T00:54:35.134Z,96445.72
2023-01-20T00:57:21.921Z,96444.34
2023-01-20T01:00:09.385Z,96463.78
2023-01-20T01:02:56.177Z,96464.72
2023-01-20T01:05:45.658Z,96467.50
2023-01-20T01:08:33.898Z,96472.56
2023-01-20T01:11:20.837Z,96480.31
2023-01-20T01:14:09.916Z,96478.78
2023-01-20T01:16:57.486Z,96476.16
2023-01-20T01:19:44.361Z,96473.53
2023-01-20T01:22:34.192Z,96470.09
2023-01-20T01:25:21.290Z,96471.91
2023-01-20T01:28:10.957Z,96471.75
2023-01-20T01:31:03.029Z,96470.38
2023-01-20T01:33:52.262Z,96476.31
2023-01-20T01:36:39.124Z,96477.28
2023-01-20T01:39:26.097Z,96484.31
2023-01-20T01:42:17.167Z,96470.00
2023-01-20T01:45:09.964Z,96480.03
2023-01-20T01:48:07.909Z,96483.75
2023-01-20T01:50:59.696Z,96483.63
2023-01-20T01:54:20.513Z,96493.28
2023-01-20T01:57:07.928Z,96483.09
2023-01-20T02:00:00.951Z,96486.53
2023-01-20T02:02:47.813Z,96485.72
2023-01-20T02:05:35.413Z,96490.94
2023-01-20T02:08:22.695Z,96485.72
2023-01-20T02:11:09.526Z,96479.66
2023-01-20T02:13:56.363Z,96479.66
2023-01-20T02:17:24.258Z,96475.38
2023-01-20T02:20:29.336Z,96479.78
2023-01-20T02:23:37.694Z,96471.09
2023-01-20T02:26:52.431Z,96470.13
2023-01-20T02:30:10.397Z,96466.03
2023-01-20T02:33:18.940Z,96456.38
2023-01-20T02:36:10.835Z,96450.72
2023-01-20T02:39:27.696Z,96451.25
2023-01-20T02:42:22.609Z,96463.69
2023-01-20T02:45:27.353Z,96458.44
2023-01-20T02:48:22.067Z,96464.66
2023-01-20T02:51:13.269Z,96463.00
2023-01-20T02:54:03.214Z,96468.22
2023-01-20T02:56:51.134Z,96468.38
2023-01-20T02:59:42.076Z,96472.78
2023-01-20T03:02:29.598Z,96477.88
2023-01-20T03:05:26.918Z,96475.53
2023-01-20T03:08:15.945Z,96478.31
2023-01-20T03:11:06.571Z,96485.19
2023-01-20T03:13:59.636Z,96482.56
2023-01-20T03:16:48.742Z,96491.53
2023-01-20T03:19:38.256Z,96490.56
2023-01-20T03:22:25.149Z,96491.53
2023-01-20T03:25:13.896Z,96495.94
2023-01-20T03:28:00.815Z,96499.69
2023-01-20T03:30:47.693Z,96498.97
2023-01-20T03:33:34.631Z,96504.06
2023-01-20T03:36:23.532Z,96512.63
2023-01-20T03:39:13.723Z,96518.00
2023-01-20T03:42:08.355Z,96522.25
2023-01-20T03:45:01.529Z,96519.78
2023-01-20T03:47:58.611Z,96524.34
2023-01-20T03:50:56.325Z,96527.06
2023-01-20T03:53:53.940Z,96537.53
2023-01-20T03:56:51.834Z,96537.53
2023-01-20T03:59:40.833Z,96541.13
2023-01-20T04:02:28.160Z,96542.13
2023-01-20T04:05:16.545Z,96551.59
2023-01-20T04:08:07.195Z,96548.31
2023-01-20T04:10:55.579Z,96551.88
2023-01-20T04:13:42.345Z,96554.66
2023-01-20T04:16:29.229Z,96556.19
2023-01-20T04:19:16.015Z,96563.19
2023-01-20T04:22:12.012Z,96565.66
2023-01-20T04:25:09.354Z,96573.66
2023-01-20T04:27:56.159Z,96569.53
2023-01-20T04:30:43.091Z,96577.38
2023-01-20T04:33:29.896Z,96571.31
2023-01-20T04:36:21.011Z,96572.41
2023-01-20T04:39:09.961Z,96582.63
2023-01-20T04:41:56.789Z,96582.63
2023-01-20T04:44:43.689Z,96585.22
2023-01-20T04:47:31.653Z,96583.59
2023-01-20T04:50:18.594Z,96591.28
2023-01-20T04:53:11.015Z,96590.47
2023-01-20T04:56:13.850Z,96593.09
2023-01-20T04:59:00.668Z,96588.41
2023-01-20T05:01:47.573Z,96594.88
2023-01-20T05:04:34.533Z,96598.44
2023-01-20T05:07:21.829Z,96601.22
2023-01-20T05:10:13.114Z,96607.28
2023-01-20T05:13:05.177Z,96609.88
2023-01-20T05:15:52.099Z,96615.81
2023-01-20T05:18:39.083Z,96610.84
2023-01-20T05:21:25.928Z,96615.94
2023-01-20T05:24:12.708Z,96620.22
2023-01-20T05:27:02.509Z,96620.34
2023-01-20T05:29:49.330Z,96619.38
2023-01-20T05:32:36.155Z,96621.88
2023-01-20T05:35:22.936Z,96626.41
2023-01-20T05:38:09.817Z,96638.56
2023-01-20T05:41:04.405Z,96637.59
2023-01-20T05:43:55.654Z,96635.09
2023-01-20T05:46:42.473Z,96637.69
2023-01-20T05:49:32.234Z,96645.56
2023-01-20T05:52:19.065Z,96651.63
2023-01-20T05:55:06.013Z,96656.31
2023-01-20T05:57:52.831Z,96657.69
2023-01-20T06:00:42.784Z,96656.03
2023-01-20T06:03:29.655Z,96662.09
2023-01-20T06:06:18.332Z,96654.53
2023-01-20T06:09:07.292Z,96660.31
2023-01-20T06:11:54.117Z,96661.00
2023-01-20T06:14:43.722Z,96663.75
2023-01-20T06:17:30.575Z,96667.03
2023-01-20T06:20:18.228Z,96668.16
2023-01-20T06:23:05.101Z,96662.94
2023-01-20T06:26:01.627Z,96670.91
2023-01-20T06:28:48.637Z,96670.22
2023-01-20T06:35:17.955Z,96665.53
2023-01-20T06:38:22.580Z,96678.91
2023-01-20T06:41:29.416Z,96673.22
2023-01-20T06:44:19.504Z,96672.13
2023-01-20T06:47:07.001Z,96689.09
2023-01-20T06:49:54.289Z,96685.09
2023-01-20T06:53:16.250Z,96680.81
2023-01-20T06:56:11.636Z,96683.56
2023-01-20T06:58:58.752Z,96680.13
2023-01-20T07:01:58.148Z,96685.38
2023-01-20T07:05:10.379Z,96684.56
2023-01-20T07:08:02.718Z,96698.75
2023-01-20T07:10:58.050Z,96703.69
2023-01-20T07:13:50.411Z,96703.97
2023-01-20T07:16:37.886Z,96702.03
2023-01-20T07:19:27.424Z,96706.88
2023-01-20T07:22:19.350Z,96718.72
2023-01-20T07:25:06.931Z,96736.47
2023-01-20T07:27:59.388Z,96733.72
2023-01-20T07:30:51.159Z,96734.41
2023-01-20T07:33:45.836Z,96735.94
2023-01-20T07:36:38.012Z,96746.84
2023-01-20T07:39:37.288Z,96759.78
2023-01-20T07:42:24.386Z,96765.84
2023-01-20T07:45:40.739Z,96754.13
2023-01-20T07:48:52.434Z,96757.84
2023-01-20T07:51:44.969Z,96754.81
2023-01-20T07:54:37.858Z,96769.97
2023-01-20T07:57:30.250Z,96768.31
2023-01-20T08:00:27.496Z,96773.41
2023-01-20T08:03:27.506Z,96768.44
2023-01-20T08:06:21.979Z,96783.47
2023-01-20T08:09:12.147Z,96786.50
2023-01-20T08:12:02.893Z,96790.63
2023-01-20T08:14:54.802Z,96783.88
2023-01-20T08:17:45.093Z,96789.94
2023-01-20T08:20:41.832Z,96811.19
2023-01-20T08:23:28.802Z,96808.69
2023-01-20T08:26:28.336Z,96806.22
2023-01-20T08:29:18.112Z,96813.94
2023-01-20T08:32:12.508Z,96812.28
2023-01-20T08:35:01.647Z,96825.94
2023-01-20T08:37:48.659Z,96804.84
2023-01-20T08:40:51.281Z,96816.81
2023-01-20T08:43:51.751Z,96811.72
2023-01-20T08:46:51.283Z,96825.09
2023-01-20T08:50:10.483Z,96832.13
2023-01-20T08:53:08.685Z,96846.47
2023-01-20T08:56:03.592Z,96826.59
2023-01-20T08:58:53.925Z,96833.78
2023-01-20T09:05:17.746Z,96838.06
2023-01-20T09:16:42.404Z,96845.91
2023-01-20T11:07:37.128Z,96886.09
2023-01-20T11:10:29.441Z,96892.72
2023-01-20T11:13:17.195Z,96881.94
2023-01-20T11:16:27.586Z,96897.81
2023-01-20T11:19:17.465Z,96880.97
2023-01-20T11:22:20.702Z,96892.97
2023-01-20T11:25:29.253Z,96886.34
2023-01-20T11:28:27.091Z,96884.56
2023-01-20T11:31:37.136Z,96893.28
2023-01-20T11:35:07.068Z,96908.75
2023-01-20T11:38:02.475Z,96894.50
2023-01-20T11:44:20.843Z,96892.06
2023-01-20T11:47:44.640Z,96905.56
2023-01-20T11:50:57.840Z,96899.50
2023-01-20T11:53:47.585Z,96902.84
2023-01-20T11:56:45.422Z,96912.78
2023-01-20T11:59:53.689Z,96902.72
2023-01-20T12:03:08.879Z,96917.81
2023-01-20T12:08:41.503Z,96908.56
2023-01-20T14:05:29.665Z,96967.16
2023-01-20T14:09:09.362Z,96980.53
2023-01-20T14:12:39.301Z,96969.78
2023-01-20T14:19:18.469Z,96971.84
2023-01-20T14:42:46.001Z,97019.75
2023-01-20T14:49:54.195Z,97025.44
2023-01-20T14:56:08.549Z,97017.41
2023-01-20T15:03:11.083Z,97032.31
2023-01-20T15:06:06.924Z,97039.25
2023-01-20T15:09:06.455Z,97063.00
2023-01-20T15:12:34.323Z,97060.38
2023-01-20T15:15:26.902Z,97064.00
2023-01-20T15:18:21.967Z,97060.25
2023-01-20T15:21:27.712Z,97076.00
2023-01-20T15:24:31.788Z,97071.72
2023-01-20T15:27:29.955Z,97070.06
2023-01-20T15:30:27.499Z,97074.34
2023-01-20T15:33:14.372Z,97079.44
2023-01-20T15:36:01.421Z,97084.31
2023-01-20T15:38:51.413Z,97084.56
2023-01-20T15:41:38.356Z,97088.59
2023-01-20T15:44:28.433Z,97082.88
2023-01-20T15:47:29.323Z,97093.28
2023-01-20T15:50:32.454Z,97104.31
2023-01-20T15:53:21.053Z,97097.00
2023-01-20T15:56:26.522Z,97104.75
2023-01-20T15:59:20.915Z,97104.31
2023-01-20T16:02:17.538Z,97095.88
2023-01-20T16:05:06.016Z,97106.38
2023-01-20T16:07:55.277Z,97108.16
2023-01-20T16:10:41.993Z,97120.06
2023-01-20T16:13:28.840Z,97114.81
2023-01-20T16:16:20.124Z,97120.06
2023-01-20T16:19:06.981Z,97119.38
2023-01-20T16:21:55.637Z,97117.84
2023-01-20T16:24:44.924Z,97126.94
2023-01-20T16:27:31.734Z,97128.19
2023-01-20T16:30:23.628Z,97133.06
2023-01-20T16:33:22.023Z,97133.06
2023-01-20T16:36:19.709Z,97140.38
2023-01-20T16:39:08.281Z,97143.00
2023-01-20T16:41:55.053Z,97137.59
2023-01-20T16:44:44.337Z,97141.88
2023-01-20T16:47:31.114Z,97139.53
2023-01-20T16:50:18.553Z,97149.34
2023-01-20T16:53:10.033Z,97145.16
2023-01-20T16:56:08.047Z,97145.16
2023-01-20T17:02:28.272Z,97138.97
2023-01-20T17:05:16.182Z,97151.13
2023-01-20T17:08:05.920Z,97150.47
2023-01-20T17:10:52.829Z,97163.31
2023-01-20T17:13:50.601Z,97153.13
2023-01-20T17:16:38.556Z,97167.91
2023-01-20T17:19:28.615Z,97168.59
2023-01-20T17:22:16.243Z,97168.47
2023-01-20T17:25:08.980Z,97169.31
2023-01-20T17:27:55.803Z,97176.91
2023-01-20T17:30:42.695Z,97175.94
2023-01-20T17:33:30.166Z,97171.94
2023-01-20T17:36:19.839Z,97184.66
2023-01-20T17:39:22.415Z,97182.28
2023-01-20T17:42:17.823Z,97181.19
2023-01-20T17:45:05.267Z,97197.09
2023-01-20T17:47:52.318Z,97200.69
2023-01-20T17:50:39.418Z,97208.44
2023-01-20T17:53:29.109Z,97206.63
2023-01-20T17:56:16.650Z,97201.63
2023-01-20T17:59:03.521Z,97209.97
2023-01-20T18:01:59.328Z,97210.38
2023-01-20T18:04:46.312Z,97217.97
2023-01-20T18:07:33.467Z,97222.13
2023-01-20T18:10:20.312Z,97221.28
2023-01-20T18:13:07.249Z,97229.03
2023-01-20T18:15:56.330Z,97222.13
2023-01-20T18:18:47.017Z,97228.19
2023-01-20T18:21:37.867Z,97231.53
2023-01-20T18:24:24.713Z,97222.53
2023-01-20T18:27:11.791Z,97222.66
2023-01-20T18:29:58.673Z,97234.56
2023-01-20T18:32:46.308Z,97237.88
2023-01-20T18:35:40.268Z,97238.84
2023-01-20T18:38:27.089Z,97236.66
2023-01-20T18:41:15.804Z,97239.81
2023-01-20T18:44:04.868Z,97230.53
2023-01-20T18:46:51.861Z,97247.97
2023-01-20T18:49:41.148Z,97244.53
2023-01-20T18:52:42.397Z,97248.81
2023-01-20T18:55:33.414Z,97237.16
2023-01-20T18:58:20.442Z,97246.84
2023-01-20T19:01:10.875Z,97236.03
2023-01-20T19:03:58.248Z,97255.56
2023-01-20T19:06:46.648Z,97248.19
2023-01-20T19:09:36.143Z,97248.19
2023-01-20T19:12:23.078Z,97248.09
2023-01-20T19:15:10.399Z,97257.19
2023-01-20T19:17:57.560Z,97253.44
2023-01-20T19:20:44.453Z,97259.53
2023-01-20T19:23:33.371Z,97259.53
2023-01-20T19:26:21.396Z,97256.91
2023-01-20T19:29:15.832Z,97260.25
2023-01-20T19:32:02.883Z,97266.56
2023-01-20T19:34:49.827Z,97261.59
2023-01-20T19:37:39.136Z,97261.47
2023-01-20T19:40:29.008Z,97271.97
2023-01-20T19:43:16.050Z,97270.59
2023-01-20T19:46:07.322Z,97259.88
2023-01-20T19:48:58.356Z,97272.63
2023-01-20T19:52:10.334Z,97283.00
2023-01-20T19:54:59.436Z,97292.41
2023-01-20T19:57:46.550Z,97278.97
2023-01-20T20:00:33.576Z,97270.69
2023-01-20T20:03:25.312Z,97284.94
2023-01-20T20:06:50.618Z,97277.00
2023-01-20T20:09:46.093Z,97282.00
2023-01-20T20:12:35.798Z,97284.75
2023-01-20T20:15:25.925Z,97290.56
2023-01-20T20:18:13.139Z,97281.56
2023-01-20T20:21:05.813Z,97297.63
2023-01-20T20:24:00.937Z,97302.03
2023-01-20T20:26:53.193Z,97296.06
2023-01-20T20:29:45.979Z,97285.97
2023-01-20T20:32:42.206Z,97294.38
2023-01-20T20:35:39.743Z,97303.94
2023-01-20T20:38:34.470Z,97293.16
2023-01-20T20:41:51.766Z,97315.41
2023-01-20T20:44:54.985Z,97292.72
2023-01-20T20:47:58.534Z,97302.13
2023-01-20T20:50:52.179Z,97302.25
2023-01-20T20:53:55.017Z,97302.53
2023-01-20T20:56:45.696Z,97292.03
2023-01-20T20:59:59.458Z,97318.44
2023-01-20T21:02:52.556Z,97313.34
2023-01-20T21:05:49.071Z,97300.00
2023-01-20T21:08:43.130Z,97296.69
2023-01-20T21:11:33.559Z,97306.53
2023-01-20T21:14:24.982Z,97305.97
2023-01-20T21:17:47.317Z,97304.03
2023-01-20T21:20:42.733Z,97298.50
2023-01-20T21:23:50.519Z,97303.84
2023-01-20T21:26:47.675Z,97310.50
2023-01-20T21:29:39.885Z,97322.53
2023-01-20T21:32:26.914Z,97309.94
2023-01-20T21:35:14.093Z,97309.94
2023-01-20T21:38:06.784Z,97319.34
2023-01-20T21:41:06.452Z,97325.56
2023-01-20T21:44:12.135Z,97332.63
2023-01-20T21:47:02.245Z,97330.25
2023-01-20T21:50:17.635Z,97324.66
2023-01-20T21:53:19.647Z,97339.91
2023-01-20T21:56:09.476Z,97342.78
2023-01-20T21:58:58.545Z,97338.47
2023-01-20T22:01:48.450Z,97337.78
2023-01-20T22:04:38.582Z,97351.59
2023-01-20T22:07:28.425Z,97344.69
2023-01-20T22:10:15.745Z,97349.13
2023-01-20T22:13:02.691Z,97349.38
2023-01-20T22:15:57.555Z,97343.69
2023-01-20T22:18:47.576Z,97352.97
2023-01-20T22:21:37.455Z,97359.03
2023-01-20T22:24:27.566Z,97355.25
2023-01-20T22:27:14.540Z,97353.34
2023-01-20T22:30:01.376Z,97367.97
2023-01-20T22:32:50.915Z,97361.22
2023-01-20T22:35:37.732Z,97362.31
2023-01-20T22:38:27.388Z,97364.78
2023-01-20T22:41:19.822Z,97369.34
2023-01-20T22:44:09.699Z,97379.84
2023-01-20T22:46:56.617Z,97373.19
2023-01-20T22:49:43.805Z,97374.69
2023-01-20T22:52:30.626Z,97378.44
2023-01-20T22:55:17.468Z,97375.81
2023-01-20T22:58:04.322Z,97361.53
2023-01-20T23:00:55.302Z,97386.41
2023-01-20T23:03:50.555Z,97377.72
2023-01-20T23:06:42.564Z,97374.66
2023-01-20T23:09:30.795Z,97383.34
2023-01-20T23:12:17.808Z,97383.44
2023-01-20T23:15:04.833Z,97378.34
2023-01-20T23:17:54.009Z,97386.34
2023-01-20T23:20:40.859Z,97386.34
2023-01-20T23:23:28.205Z,97386.47
2023-01-20T23:26:18.740Z,97379.34
2023-01-20T23:29:05.588Z,97383.38
2023-01-20T23:31:55.199Z,97379.34
2023-01-20T23:34:49.355Z,97383.75
2023-01-20T23:37:36.255Z,97380.44
2023-01-20T23:40:26.350Z,97380.44
2023-01-20T23:43:13.219Z,97386.50
2023-01-20T23:46:03.791Z,97385.09
2023-01-20T23:48:50.772Z,97400.59
2023-01-20T23:51:37.645Z,97399.84
2023-01-20T23:54:27.508Z,97400.69
2023-01-20T23:57:14.854Z,97410.59
